Time;durP1;ratioP1;P1;durP2;ratioP2;P2;SDS_P1;SDS_P2;PMS_P1;PMS_P2;Temp;Humidity;BMP_temperature;BMP_pressure;BME280_temperature;BME280_humidity;BME280_pressure;Samples;Min_cycle;Max_cycle;Signal;HPM_P1;HPM_P2
2023/06/21 00:00:30;;;;;;;3.95;2.22;;;24.00;69.90;;;;;;5089122;28;20196;-70
2023/06/21 00:02:58;;;;;;;4.75;2.72;;;24.00;69.80;;;;;;5095076;28;20203;-70
2023/06/21 00:05:24;;;;;;;4.60;2.53;;;24.00;69.90;;;;;;5083807;28;20217;-68
2023/06/21 00:07:53;;;;;;;2.75;2.30;;;24.00;69.90;;;;;;5113376;28;20187;-69
2023/06/21 00:10:23;;;;;;;3.63;2.33;;;24.00;69.90;;;;;;5072781;28;20553;-70
2023/06/21 00:12:56;;;;;;;3.85;2.35;;;24.00;69.90;;;;;;5073064;28;20262;-70
2023/06/21 00:15:23;;;;;;;3.53;2.80;;;24.00;69.80;;;;;;5090261;28;20200;-69
2023/06/21 00:17:49;;;;;;;3.60;2.85;;;24.00;69.90;;;;;;5090541;28;20209;-69
2023/06/21 00:20:15;;;;;;;5.65;2.50;;;24.00;69.90;;;;;;5090553;28;20254;-69
2023/06/21 00:22:45;;;;;;;3.17;2.30;;;24.00;69.80;;;;;;5073129;28;20201;-70
2023/06/21 00:25:12;;;;;;;3.60;2.65;;;24.00;69.80;;;;;;5073672;28;20208;-70
2023/06/21 00:27:39;;;;;;;4.55;2.60;;;24.00;69.80;;;;;;5106487;28;20244;-70
2023/06/21 00:30:06;;;;;;;2.90;2.38;;;24.00;69.80;;;;;;5102653;28;20185;-69
2023/06/21 00:32:32;;;;;;;3.30;2.53;;;24.00;69.80;;;;;;5089740;28;20216;-70
2023/06/21 00:34:57;;;;;;;3.97;2.47;;;23.90;69.70;;;;;;5090770;28;20177;-69
2023/06/21 00:37:26;;;;;;;4.65;2.65;;;24.00;69.80;;;;;;5090162;28;20206;-68
2023/06/21 00:39:52;;;;;;;4.70;2.42;;;24.00;69.90;;;;;;5090681;28;20185;-69
2023/06/21 00:42:18;;;;;;;5.80;2.92;;;24.00;69.80;;;;;;5073095;28;20212;-69
2023/06/21 00:44:44;;;;;;;3.78;2.85;;;24.00;69.90;;;;;;5077305;28;20580;-69
2023/06/21 00:47:10;;;;;;;5.15;2.80;;;24.00;69.90;;;;;;5122950;28;20200;-69
2023/06/21 00:49:37;;;;;;;2.65;2.30;;;24.00;69.80;;;;;;5085872;28;20180;-70
2023/06/21 00:52:05;;;;;;;3.60;2.50;;;24.00;69.90;;;;;;5091680;28;20208;-70
2023/06/21 00:54:35;;;;;;;3.25;2.33;;;23.90;69.70;;;;;;5094765;28;20193;-70
2023/06/21 00:57:03;;;;;;;3.72;3.10;;;24.00;69.80;;;;;;5074521;28;20216;-70
2023/06/21 00:59:30;;;;;;;3.83;2.35;;;23.90;69.70;;;;;;5078791;28;20193;-70
2023/06/21 01:02:02;;;;;;;4.38;2.60;;;23.90;69.70;;;;;;5116847;27;20607;-70
2023/06/21 01:04:33;;;;;;;2.95;2.67;;;23.90;69.80;;;;;;5095884;28;20209;-70
2023/06/21 01:07:32;;;;;;;3.20;2.40;;;23.90;69.70;;;;;;5098649;28;20180;-70
2023/06/21 01:10:16;;;;;;;3.13;2.40;;;23.90;69.70;;;;;;5089346;28;20208;-70
2023/06/21 01:13:12;;;;;;;3.20;2.30;;;23.90;69.70;;;;;;5094267;28;20200;-69
2023/06/21 01:15:54;;;;;;;4.18;2.50;;;23.90;69.80;;;;;;5094499;28;20193;-70
2023/06/21 01:18:22;;;;;;;3.70;2.22;;;23.90;69.80;;;;;;5101849;28;20187;-70
2023/06/21 01:20:57;;;;;;;4.78;2.80;;;23.90;69.70;;;;;;5076507;28;20268;-70
2023/06/21 01:23:25;;;;;;;3.00;2.70;;;23.90;69.70;;;;;;5094345;28;20241;-69
2023/06/21 01:26:29;;;;;;;4.10;2.67;;;24.00;69.80;;;;;;5100889;28;20208;-69
2023/06/21 01:29:08;;;;;;;3.17;2.53;;;24.00;69.80;;;;;;5073259;28;20185;-69
2023/06/21 01:31:35;;;;;;;3.58;2.90;;;23.90;69.70;;;;;;5091152;28;20287;-70
2023/06/21 01:34:03;;;;;;;4.85;3.17;;;23.90;69.80;;;;;;5093972;28;20192;-70
2023/06/21 01:36:30;;;;;;;3.60;2.85;;;23.90;69.80;;;;;;5094185;28;20232;-69
2023/06/21 01:38:56;;;;;;;3.10;2.60;;;23.90;69.80;;;;;;5112828;28;20184;-69
2023/06/21 01:41:23;;;;;;;4.07;2.70;;;23.90;69.80;;;;;;5111286;27;20218;-69
2023/06/21 01:43:50;;;;;;;3.15;2.35;;;23.90;69.70;;;;;;5080084;28;20207;-69
2023/06/21 01:46:18;;;;;;;3.35;2.78;;;23.90;69.80;;;;;;5096326;28;20215;-70
2023/06/21 01:48:45;;;;;;;3.08;2.60;;;23.90;69.70;;;;;;5101285;28;20181;-70
2023/06/21 01:51:13;;;;;;;3.70;2.63;;;23.90;69.70;;;;;;5097235;28;20181;-70
2023/06/21 01:53:40;;;;;;;3.42;2.80;;;23.90;69.70;;;;;;5092120;28;20185;-69
2023/06/21 01:56:13;;;;;;;3.00;2.47;;;23.90;69.70;;;;;;5076007;28;20189;-70
2023/06/21 01:58:39;;;;;;;2.90;2.70;;;23.90;69.70;;;;;;5091941;28;20197;-69
2023/06/21 02:01:07;;;;;;;2.85;2.63;;;23.90;69.70;;;;;;5075310;28;20201;-70
2023/06/21 02:03:34;;;;;;;3.45;2.67;;;23.90;69.70;;;;;;5092271;28;20246;-69
2023/06/21 02:06:03;;;;;;;3.78;3.00;;;23.90;69.70;;;;;;5092355;28;20216;-70
2023/06/21 02:08:32;;;;;;;4.03;3.03;;;23.90;69.80;;;;;;5099258;28;20192;-69
2023/06/21 02:11:00;;;;;;;2.90;2.45;;;23.90;69.70;;;;;;5092087;28;20204;-70
2023/06/21 02:13:27;;;;;;;4.70;3.10;;;23.90;69.80;;;;;;5089607;28;20197;-70
2023/06/21 02:15:54;;;;;;;3.00;2.60;;;23.90;69.80;;;;;;5100655;28;20193;-69
2023/06/21 02:18:24;;;;;;;3.58;2.85;;;23.90;69.80;;;;;;5092159;28;20218;-69
2023/06/21 02:20:52;;;;;;;3.45;2.75;;;23.90;69.70;;;;;;5100116;28;20192;-70
2023/06/21 02:23:18;;;;;;;3.92;2.90;;;23.90;69.70;;;;;;5093017;28;20220;-69
2023/06/21 02:25:44;;;;;;;4.55;2.17;;;23.90;69.80;;;;;;5100066;28;20204;-70
2023/06/21 02:28:10;;;;;;;4.57;3.08;;;23.90;69.70;;;;;;5091773;28;20181;-69
2023/06/21 02:30:36;;;;;;;3.55;3.25;;;23.80;69.60;;;;;;5091401;28;20189;-70
2023/06/21 02:33:02;;;;;;;4.05;3.00;;;23.90;69.70;;;;;;5074814;28;20266;-70
2023/06/21 02:35:28;;;;;;;4.07;3.00;;;23.90;69.70;;;;;;5096465;28;20593;-70
2023/06/21 02:37:55;;;;;;;4.03;2.95;;;23.90;69.70;;;;;;5084916;28;20185;-69
2023/06/21 02:40:21;;;;;;;3.05;2.83;;;23.90;69.70;;;;;;5088346;28;20218;-70
2023/06/21 02:42:47;;;;;;;3.58;3.28;;;23.80;69.50;;;;;;5087457;28;20210;-70
2023/06/21 02:45:12;;;;;;;4.07;3.08;;;23.80;69.50;;;;;;5069635;28;20213;-70
2023/06/21 02:47:38;;;;;;;3.78;2.92;;;23.80;69.50;;;;;;5090470;28;20192;-69
2023/06/21 02:50:05;;;;;;;4.18;3.10;;;23.80;69.60;;;;;;5074635;28;20216;-70
2023/06/21 02:52:31;;;;;;;4.43;2.90;;;23.80;69.50;;;;;;5091043;28;20208;-69
2023/06/21 02:54:58;;;;;;;3.30;3.00;;;23.90;69.70;;;;;;5074627;28;20271;-69
2023/06/21 02:57:24;;;;;;;3.80;3.28;;;23.80;69.50;;;;;;5074031;28;20188;-69
2023/06/21 02:59:50;;;;;;;3.05;2.75;;;23.80;69.60;;;;;;5091343;28;20204;-69
2023/06/21 03:02:17;;;;;;;4.05;3.25;;;23.80;69.50;;;;;;5115387;27;20236;-70
2023/06/21 03:04:44;;;;;;;4.13;3.30;;;23.80;69.50;;;;;;5099398;28;20212;-70
2023/06/21 03:07:11;;;;;;;4.68;3.55;;;23.80;69.50;;;;;;5081612;28;20240;-70
2023/06/21 03:09:37;;;;;;;4.40;3.42;;;23.80;69.50;;;;;;5074455;28;20256;-70
2023/06/21 03:12:08;;;;;;;3.65;3.35;;;23.90;69.70;;;;;;5070376;28;20209;-69
2023/06/21 03:14:37;;;;;;;4.57;3.25;;;23.80;69.50;;;;;;5106776;28;20189;-69
2023/06/21 03:17:06;;;;;;;3.40;2.92;;;23.80;69.50;;;;;;5091487;28;20246;-69
2023/06/21 03:19:32;;;;;;;3.33;2.80;;;23.80;70.30;;;;;;5092314;28;20196;-69
2023/06/21 03:21:59;;;;;;;3.95;3.20;;;23.80;69.60;;;;;;5092745;28;20219;-69
2023/06/21 03:24:26;;;;;;;3.47;3.17;;;23.80;69.60;;;;;;5099565;28;20204;-69
2023/06/21 03:26:54;;;;;;;3.58;3.00;;;23.80;69.50;;;;;;5099339;28;20181;-70
2023/06/21 03:29:20;;;;;;;3.25;2.63;;;23.80;69.60;;;;;;5090890;28;20202;-68
2023/06/21 03:31:47;;;;;;;4.97;3.30;;;23.80;69.50;;;;;;5084953;28;20253;-69
2023/06/21 03:34:13;;;;;;;3.47;3.17;;;23.80;69.60;;;;;;5079569;28;20231;-70
2023/06/21 03:36:39;;;;;;;3.90;3.60;;;23.80;69.50;;;;;;5090032;28;20188;-70
2023/06/21 03:39:06;;;;;;;4.90;3.22;;;23.80;69.60;;;;;;5090680;28;20185;-69
2023/06/21 03:41:32;;;;;;;3.60;3.25;;;23.80;69.60;;;;;;5081506;28;20263;-70
2023/06/21 03:43:59;;;;;;;4.30;2.60;;;23.80;69.60;;;;;;5090812;28;20207;-69
2023/06/21 03:46:25;;;;;;;3.78;3.42;;;23.80;69.60;;;;;;5090704;28;20656;-70
2023/06/21 03:48:53;;;;;;;3.67;3.25;;;23.80;69.60;;;;;;5066088;28;20268;-70
2023/06/21 03:51:21;;;;;;;3.97;3.53;;;23.80;69.70;;;;;;5081212;28;20209;-70
2023/06/21 03:53:48;;;;;;;3.67;3.38;;;23.80;69.70;;;;;;5110581;28;20695;-69
2023/06/21 03:56:14;;;;;;;3.80;3.00;;;23.80;69.60;;;;;;5096468;28;20193;-70
2023/06/21 03:58:41;;;;;;;3.60;3.22;;;23.80;69.60;;;;;;5083836;28;20188;-70
2023/06/21 04:01:07;;;;;;;3.58;3.28;;;23.80;69.70;;;;;;5093237;28;20201;-69
2023/06/21 04:03:33;;;;;;;3.78;3.20;;;23.80;69.80;;;;;;5089143;28;20199;-70
2023/06/21 04:05:59;;;;;;;4.03;3.63;;;23.80;69.80;;;;;;5080649;28;20208;-70
2023/06/21 04:08:24;;;;;;;4.07;3.17;;;23.80;69.70;;;;;;5074599;28;20194;-69
2023/06/21 04:10:50;;;;;;;3.45;3.15;;;23.80;69.80;;;;;;5072928;28;20223;-70
2023/06/21 04:13:16;;;;;;;3.33;3.00;;;23.80;69.70;;;;;;5088887;28;20204;-69
2023/06/21 04:15:42;;;;;;;3.22;2.92;;;23.80;69.70;;;;;;5091936;28;20189;-69
2023/06/21 04:18:07;;;;;;;3.90;3.17;;;23.80;69.80;;;;;;5091043;28;20199;-69
2023/06/21 04:20:33;;;;;;;3.50;3.20;;;23.80;69.80;;;;;;5082365;28;20196;-69
2023/06/21 04:22:59;;;;;;;4.70;3.47;;;23.80;69.80;;;;;;5098039;28;20212;-69
2023/06/21 04:25:25;;;;;;;3.55;3.20;;;23.80;69.80;;;;;;5090368;28;20634;-68
2023/06/21 04:27:51;;;;;;;4.07;3.20;;;23.80;69.80;;;;;;5085273;28;20181;-67
2023/06/21 04:30:18;;;;;;;3.58;3.28;;;23.80;69.80;;;;;;5095065;28;20188;-68
2023/06/21 04:32:44;;;;;;;3.60;3.28;;;23.80;69.80;;;;;;5095904;28;20209;-68
2023/06/21 04:35:18;;;;;;;3.85;3.10;;;23.80;69.90;;;;;;5123398;27;20187;-69
2023/06/21 04:37:46;;;;;;;3.50;3.20;;;23.80;69.90;;;;;;5103639;28;20223;-69
2023/06/21 04:40:18;;;;;;;4.68;3.20;;;23.80;70.20;;;;;;5095374;28;20181;-69
2023/06/21 04:42:46;;;;;;;4.07;3.22;;;23.80;70.00;;;;;;5101849;28;20246;-69
2023/06/21 04:45:14;;;;;;;3.95;3.28;;;23.80;70.00;;;;;;5094047;28;20283;-69
2023/06/21 04:47:41;;;;;;;4.00;3.42;;;23.80;70.10;;;;;;5098216;28;20185;-69
2023/06/21 04:50:10;;;;;;;4.47;3.50;;;23.80;70.20;;;;;;5077100;28;20632;-68
2023/06/21 04:52:37;;;;;;;4.07;3.08;;;23.80;70.20;;;;;;5101631;28;20215;-67
2023/06/21 04:55:08;;;;;;;4.80;3.60;;;23.80;70.20;;;;;;5093989;28;20192;-69
2023/06/21 04:57:34;;;;;;;5.45;3.92;;;23.80;70.10;;;;;;5092758;28;20199;-67
2023/06/21 05:00:07;;;;;;;3.30;3.00;;;23.80;70.20;;;;;;5092807;28;20291;-69
2023/06/21 05:02:33;;;;;;;3.92;3.17;;;23.80;70.20;;;;;;5092557;28;20215;-68
2023/06/21 05:04:59;;;;;;;4.70;3.17;;;23.80;70.20;;;;;;5084309;28;20678;-68
2023/06/21 05:07:25;;;;;;;4.15;3.70;;;23.80;70.20;;;;;;5100984;28;20238;-68
2023/06/21 05:09:50;;;;;;;5.28;3.97;;;23.80;70.20;;;;;;5099119;28;20292;-68
2023/06/21 05:12:16;;;;;;;3.92;3.63;;;23.80;70.20;;;;;;5095824;28;20250;-68
2023/06/21 05:14:42;;;;;;;3.97;3.67;;;23.80;70.20;;;;;;5075394;28;20184;-68
2023/06/21 05:17:08;;;;;;;5.65;4.00;;;23.80;70.20;;;;;;5094241;28;20242;-68
2023/06/21 05:19:34;;;;;;;4.00;3.60;;;23.80;70.20;;;;;;5093866;28;20197;-67
2023/06/21 05:22:00;;;;;;;5.95;3.70;;;23.80;70.30;;;;;;5069156;28;20209;-67
2023/06/21 05:24:26;;;;;;;4.57;4.03;;;23.80;70.30;;;;;;5098752;28;20217;-68
2023/06/21 05:26:51;;;;;;;4.78;4.03;;;23.80;70.40;;;;;;5083396;28;20199;-69
2023/06/21 05:29:17;;;;;;;5.50;4.88;;;23.80;70.30;;;;;;5074312;28;20181;-68
2023/06/21 05:31:44;;;;;;;6.32;4.95;;;23.80;70.40;;;;;;5073964;28;20205;-68
2023/06/21 05:34:10;;;;;;;7.60;5.40;;;23.80;70.40;;;;;;5078707;28;20213;-68
2023/06/21 05:36:36;;;;;;;8.45;6.18;;;23.80;70.40;;;;;;5106073;28;20189;-68
2023/06/21 05:39:03;;;;;;;7.72;6.18;;;23.80;70.50;;;;;;5092264;28;20208;-69
2023/06/21 05:41:29;;;;;;;8.93;6.10;;;23.80;70.40;;;;;;5074616;28;20228;-68
2023/06/21 05:43:55;;;;;;;9.45;6.38;;;23.80;70.30;;;;;;5074874;28;20271;-68
2023/06/21 05:46:20;;;;;;;8.75;6.55;;;23.80;70.50;;;;;;5083491;28;20243;-68
2023/06/21 05:48:46;;;;;;;7.50;5.97;;;23.80;70.70;;;;;;5092001;28;20185;-68
2023/06/21 05:51:12;;;;;;;9.00;6.88;;;23.80;70.60;;;;;;5092601;28;20612;-68
2023/06/21 05:53:38;;;;;;;7.82;6.65;;;23.80;70.70;;;;;;5091722;28;20185;-68
2023/06/21 05:56:04;;;;;;;8.13;6.57;;;23.80;70.60;;;;;;5092116;28;20215;-67
2023/06/21 05:58:30;;;;;;;8.43;6.70;;;23.80;70.60;;;;;;5087760;28;20197;-68
2023/06/21 06:00:56;;;;;;;7.50;6.30;;;23.80;70.50;;;;;;5091768;28;20272;-68
2023/06/21 06:03:22;;;;;;;9.93;7.00;;;23.80;70.50;;;;;;5067701;28;20213;-68
2023/06/21 06:05:49;;;;;;;10.20;7.30;;;23.80;70.60;;;;;;5072557;28;20216;-67
2023/06/21 06:08:16;;;;;;;8.93;6.53;;;23.80;70.50;;;;;;5090007;28;20662;-69
2023/06/21 06:10:42;;;;;;;10.93;7.40;;;23.90;70.60;;;;;;5074284;28;20243;-69
2023/06/21 06:13:08;;;;;;;9.75;6.88;;;23.90;70.60;;;;;;5073692;28;20204;-68
2023/06/21 06:15:34;;;;;;;9.68;6.90;;;23.90;70.60;;;;;;5108129;28;20203;-69
2023/06/21 06:18:00;;;;;;;9.52;7.53;;;23.90;70.70;;;;;;5074387;28;20193;-68
2023/06/21 06:20:26;;;;;;;9.30;7.25;;;23.80;70.60;;;;;;5092996;28;20223;-69
2023/06/21 06:22:52;;;;;;;7.38;6.68;;;23.90;70.70;;;;;;5073361;28;20265;-68
2023/06/21 06:25:18;;;;;;;8.70;7.20;;;23.90;70.80;;;;;;5074166;28;20289;-69
2023/06/21 06:27:44;;;;;;;9.85;6.75;;;23.90;71.00;;;;;;5105857;28;20281;-69
2023/06/21 06:30:11;;;;;;;9.20;7.03;;;23.90;71.10;;;;;;5082490;28;20264;-68
2023/06/21 06:32:37;;;;;;;6.72;6.00;;;23.90;71.10;;;;;;5091759;28;20201;-68
2023/06/21 06:35:04;;;;;;;8.70;7.05;;;23.90;71.00;;;;;;5090973;28;20204;-67
2023/06/21 06:37:30;;;;;;;8.40;7.15;;;23.90;71.10;;;;;;5104449;28;20328;-68
2023/06/21 06:39:56;;;;;;;7.97;6.28;;;23.90;70.90;;;;;;5091142;28;20217;-68
2023/06/21 06:42:22;;;;;;;9.40;7.03;;;23.90;71.20;;;;;;5073193;28;20215;-68
2023/06/21 06:44:47;;;;;;;8.65;7.03;;;23.90;71.20;;;;;;5073620;28;20201;-68
2023/06/21 06:47:14;;;;;;;7.07;6.38;;;23.90;71.10;;;;;;5090359;28;20308;-68
2023/06/21 06:49:39;;;;;;;9.68;7.47;;;23.90;71.20;;;;;;5072886;28;20185;-68
2023/06/21 06:52:06;;;;;;;7.50;6.60;;;23.90;71.20;;;;;;5073056;28;20204;-69
2023/06/21 06:54:32;;;;;;;10.60;7.65;;;23.90;71.20;;;;;;5072539;28;20189;-67
2023/06/21 06:56:58;;;;;;;7.82;6.88;;;23.90;71.20;;;;;;5066027;28;20300;-68
2023/06/21 06:59:24;;;;;;;7.72;6.93;;;23.90;71.20;;;;;;5089723;28;20276;-68
2023/06/21 07:01:50;;;;;;;8.65;6.75;;;23.90;71.10;;;;;;5071047;28;20209;-68
2023/06/21 07:04:16;;;;;;;9.38;6.80;;;23.90;71.20;;;;;;5075894;28;20200;-69
2023/06/21 07:06:42;;;;;;;7.43;6.55;;;23.90;71.10;;;;;;5070671;28;20196;-69
2023/06/21 07:09:08;;;;;;;7.85;6.90;;;23.90;71.10;;;;;;5091726;28;20200;-69
2023/06/21 07:11:35;;;;;;;7.78;6.97;;;23.90;71.20;;;;;;5079837;28;20226;-68
2023/06/21 07:14:01;;;;;;;8.02;6.20;;;23.90;71.20;;;;;;5099395;28;20196;-68
2023/06/21 07:16:34;;;;;;;6.72;6.10;;;23.90;71.20;;;;;;5075079;28;20192;-69
2023/06/21 07:19:00;;;;;;;7.00;6.20;;;23.90;71.10;;;;;;5073273;28;20181;-68
2023/06/21 07:21:27;;;;;;;7.40;6.70;;;23.90;71.20;;;;;;5072297;28;20693;-68
2023/06/21 07:23:53;;;;;;;7.10;6.40;;;24.00;71.20;;;;;;5099922;28;20188;-68
2023/06/21 07:26:19;;;;;;;7.22;6.53;;;24.00;71.20;;;;;;5090307;28;20223;-68
2023/06/21 07:28:44;;;;;;;8.15;6.88;;;24.00;71.20;;;;;;5087463;28;20186;-68
2023/06/21 07:31:10;;;;;;;8.63;6.25;;;24.00;71.30;;;;;;5088508;28;20189;-68
2023/06/21 07:33:36;;;;;;;7.88;6.43;;;24.00;71.20;;;;;;5088845;28;20186;-68
2023/06/21 07:36:03;;;;;;;7.63;6.40;;;24.00;71.20;;;;;;5084958;28;20192;-68
2023/06/21 07:38:29;;;;;;;7.57;6.15;;;24.00;71.10;;;;;;5106847;28;20200;-69
2023/06/21 07:40:54;;;;;;;8.60;6.07;;;24.00;71.10;;;;;;5115012;27;20187;-68
2023/06/21 07:43:21;;;;;;;6.40;5.78;;;24.00;71.10;;;;;;5078909;28;20184;-68
2023/06/21 07:45:47;;;;;;;6.30;5.70;;;24.00;71.00;;;;;;5082076;28;20207;-69
2023/06/21 07:48:13;;;;;;;6.45;5.80;;;24.00;71.00;;;;;;5064367;28;20189;-68
2023/06/21 07:50:39;;;;;;;7.05;6.35;;;24.00;71.10;;;;;;5061022;28;20211;-68
2023/06/21 07:53:06;;;;;;;7.00;6.25;;;24.10;71.30;;;;;;5063977;28;20196;-69
2023/06/21 07:55:31;;;;;;;6.60;5.80;;;24.00;71.00;;;;;;5089802;28;20184;-69
2023/06/21 07:57:57;;;;;;;7.05;5.93;;;24.00;71.10;;;;;;5079329;28;20180;-68
2023/06/21 08:00:23;;;;;;;7.40;6.65;;;24.00;71.00;;;;;;5071937;28;20182;-68
2023/06/21 08:02:51;;;;;;;6.60;5.90;;;24.00;71.00;;;;;;5087732;28;20712;-67
2023/06/21 08:05:18;;;;;;;7.93;6.15;;;24.00;71.10;;;;;;5094876;28;20200;-68
2023/06/21 08:07:44;;;;;;;7.05;6.43;;;24.10;71.20;;;;;;5091284;28;20709;-68
2023/06/21 08:10:12;;;;;;;6.93;6.20;;;24.00;71.00;;;;;;5102518;28;20212;-68
2023/06/21 08:12:38;;;;;;;6.75;6.03;;;24.10;71.00;;;;;;5081228;28;20197;-68
2023/06/21 08:15:05;;;;;;;6.30;5.70;;;24.10;71.10;;;;;;5092168;28;20192;-68
2023/06/21 08:17:31;;;;;;;7.50;5.97;;;24.10;71.00;;;;;;5093393;28;20185;-68
2023/06/21 08:19:58;;;;;;;7.50;6.10;;;24.10;71.00;;;;;;5090461;28;20192;-68
2023/06/21 08:22:25;;;;;;;6.63;6.03;;;24.10;71.00;;;;;;5089003;28;20201;-68
2023/06/21 08:24:50;;;;;;;6.65;5.95;;;24.10;71.00;;;;;;5089871;28;20207;-68
2023/06/21 08:27:17;;;;;;;5.80;5.30;;;24.10;71.00;;;;;;5089658;28;20189;-68
2023/06/21 08:29:44;;;;;;;6.10;5.43;;;24.00;70.70;;;;;;5089765;28;20177;-68
2023/06/21 08:32:10;;;;;;;5.95;5.43;;;24.00;70.70;;;;;;5089012;28;20205;-68
2023/06/21 08:34:35;;;;;;;6.50;5.78;;;24.00;70.70;;;;;;5073404;28;20185;-69
2023/06/21 08:37:01;;;;;;;6.30;5.70;;;24.00;70.60;;;;;;5089495;28;20246;-69
2023/06/21 08:39:27;;;;;;;6.10;5.50;;;24.00;70.70;;;;;;5072133;28;20181;-68
2023/06/21 08:41:53;;;;;;;5.65;5.15;;;24.00;70.90;;;;;;5072238;28;20213;-68
2023/06/21 08:44:19;;;;;;;6.28;5.68;;;24.00;71.00;;;;;;5072217;28;20185;-68
2023/06/21 08:46:49;;;;;;;5.68;5.18;;;24.00;71.30;;;;;;5070501;28;20223;-69
2023/06/21 08:49:20;;;;;;;6.38;5.40;;;24.10;71.40;;;;;;5087624;28;20212;-69
2023/06/21 08:51:48;;;;;;;7.05;5.30;;;24.00;71.00;;;;;;5068378;28;20204;-69
2023/06/21 08:54:18;;;;;;;6.40;5.75;;;24.00;70.90;;;;;;5089168;28;20656;-69
2023/06/21 08:56:53;;;;;;;7.88;5.20;;;24.00;70.90;;;;;;5085815;28;20276;-69
2023/06/21 08:59:41;;;;;;;7.60;5.05;;;24.00;70.90;;;;;;5089590;28;20188;-68
2023/06/21 09:02:28;;;;;;;7.70;5.30;;;24.00;70.80;;;;;;5073459;28;20205;-67
2023/06/21 09:04:58;;;;;;;5.60;5.03;;;24.00;70.50;;;;;;5071846;28;20217;-69
2023/06/21 09:07:24;;;;;;;6.32;4.22;;;24.00;70.50;;;;;;5088590;28;20268;-69
2023/06/21 09:09:54;;;;;;;4.90;4.40;;;24.00;70.50;;;;;;5080801;28;20187;-69
2023/06/21 09:12:20;;;;;;;7.75;5.07;;;24.00;70.50;;;;;;5072623;28;20201;-69
2023/06/21 09:14:46;;;;;;;6.30;4.88;;;24.00;70.40;;;;;;5092822;28;20188;-68
2023/06/21 09:17:13;;;;;;;6.60;4.90;;;24.00;70.40;;;;;;5075211;28;20173;-68
2023/06/21 09:19:41;;;;;;;5.82;5.22;;;23.90;70.30;;;;;;5074923;28;20665;-68
2023/06/21 09:22:07;;;;;;;6.18;4.85;;;24.00;70.40;;;;;;5074408;28;20215;-68
2023/06/21 09:24:33;;;;;;;6.75;4.70;;;23.90;70.30;;;;;;5083713;28;20205;-69
2023/06/21 09:26:59;;;;;;;5.68;4.60;;;24.00;70.50;;;;;;5091792;28;20235;-69
2023/06/21 09:29:26;;;;;;;6.47;4.68;;;23.90;70.30;;;;;;5075710;28;20212;-69
2023/06/21 09:31:52;;;;;;;6.68;5.00;;;23.90;70.30;;;;;;5082201;28;20221;-69
2023/06/21 09:34:17;;;;;;;7.40;4.05;;;23.90;70.40;;;;;;5072439;28;20607;-69
2023/06/21 09:36:43;;;;;;;6.32;4.28;;;23.90;70.40;;;;;;5097175;27;20191;-69
2023/06/21 09:39:11;;;;;;;4.35;3.95;;;23.90;70.40;;;;;;5091317;28;20604;-69
2023/06/21 09:41:39;;;;;;;6.68;4.45;;;23.90;71.20;;;;;;5099704;28;20210;-69
2023/06/21 09:44:05;;;;;;;6.97;4.60;;;23.90;70.40;;;;;;5092628;28;20193;-69
2023/06/21 09:46:31;;;;;;;5.05;4.55;;;23.90;70.40;;;;;;5097480;28;20212;-68
2023/06/21 09:49:10;;;;;;;4.85;4.18;;;23.90;70.30;;;;;;5093860;28;20189;-69
2023/06/21 09:51:45;;;;;;;5.03;4.10;;;23.90;70.30;;;;;;5074214;28;20201;-68
2023/06/21 09:54:11;;;;;;;5.07;3.95;;;23.90;70.30;;;;;;5103651;28;20237;-69
2023/06/21 09:56:37;;;;;;;4.82;4.32;;;23.90;70.30;;;;;;5096669;28;20317;-69
2023/06/21 09:59:13;;;;;;;5.85;4.75;;;23.90;70.30;;;;;;5099700;28;20540;-69
2023/06/21 10:01:44;;;;;;;5.28;4.53;;;23.90;70.30;;;;;;5090583;28;20225;-69
2023/06/21 10:04:16;;;;;;;4.20;3.78;;;23.90;70.30;;;;;;5095959;28;20199;-69
2023/06/21 10:06:55;;;;;;;6.32;4.22;;;23.90;70.30;;;;;;5101215;28;20197;-70
2023/06/21 10:09:22;;;;;;;8.32;4.55;;;23.90;70.30;;;;;;5084282;28;20589;-69
2023/06/21 10:11:54;;;;;;;4.90;4.22;;;23.90;70.30;;;;;;5107503;28;20561;-69
2023/06/21 10:14:29;;;;;;;4.75;3.60;;;23.90;70.30;;;;;;5082089;28;20187;-69
2023/06/21 10:16:55;;;;;;;5.95;4.50;;;23.90;70.30;;;;;;5090681;28;20196;-68
2023/06/21 10:19:23;;;;;;;4.20;3.78;;;23.90;70.30;;;;;;5104119;28;20248;-69
2023/06/21 10:22:11;;;;;;;4.10;3.70;;;23.90;70.30;;;;;;5084610;28;20204;-68
2023/06/21 10:24:51;;;;;;;4.57;4.03;;;23.90;70.30;;;;;;5097953;28;20207;-68
2023/06/21 10:27:20;;;;;;;6.80;4.43;;;23.90;70.30;;;;;;5091420;28;20218;-69
2023/06/21 10:29:54;;;;;;;6.70;3.88;;;23.90;70.30;;;;;;5091040;28;20185;-69
2023/06/21 10:32:21;;;;;;;4.72;3.75;;;23.90;70.30;;;;;;5087008;28;20195;-69
2023/06/21 10:35:02;;;;;;;4.10;3.55;;;23.90;70.30;;;;;;5094456;28;20206;-68
2023/06/21 10:38:02;;;;;;;5.53;3.95;;;23.90;70.30;;;;;;5077607;28;20250;-69
2023/06/21 10:40:29;;;;;;;5.50;3.72;;;23.90;70.30;;;;;;5054060;28;20258;-69
2023/06/21 10:42:58;;;;;;;5.25;3.35;;;23.90;70.30;;;;;;5094587;28;20212;-68
2023/06/21 10:45:25;;;;;;;5.32;3.72;;;23.90;70.30;;;;;;5103746;28;20275;-68
2023/06/21 10:47:54;;;;;;;4.07;3.63;;;23.90;70.20;;;;;;5101757;28;20195;-69
2023/06/21 10:50:22;;;;;;;5.30;3.85;;;23.90;70.20;;;;;;5086403;28;20176;-68
2023/06/21 10:52:54;;;;;;;8.10;3.70;;;23.90;70.20;;;;;;5085674;28;20238;-68
2023/06/21 10:55:21;;;;;;;6.00;4.10;;;24.00;70.30;;;;;;5074677;28;20193;-68
2023/06/21 10:57:54;;;;;;;7.15;4.10;;;23.90;70.10;;;;;;5083742;28;20192;-69
2023/06/21 11:00:26;;;;;;;7.40;4.15;;;23.90;70.10;;;;;;5087811;28;20216;-69
2023/06/21 11:02:54;;;;;;;5.88;4.20;;;24.00;70.30;;;;;;5109818;28;20204;-69
2023/06/21 11:05:25;;;;;;;6.97;4.10;;;24.00;70.40;;;;;;5107060;28;20201;-69
2023/06/21 11:08:05;;;;;;;6.95;4.30;;;24.00;70.40;;;;;;5069993;28;20206;-68
2023/06/21 11:10:49;;;;;;;6.80;3.67;;;24.00;70.40;;;;;;5085116;28;20188;-69
2023/06/21 11:13:17;;;;;;;7.30;4.32;;;24.00;70.60;;;;;;5099774;28;20204;-68
2023/06/21 11:15:47;;;;;;;4.70;3.60;;;24.00;70.40;;;;;;5087871;28;20195;-68
2023/06/21 11:18:18;;;;;;;7.28;3.92;;;24.10;70.80;;;;;;5080880;28;20195;-68
2023/06/21 11:20:48;;;;;;;10.73;4.88;;;24.00;70.50;;;;;;5073513;28;20257;-69
2023/06/21 11:23:22;;;;;;;6.72;3.80;;;24.00;70.50;;;;;;5099253;28;20204;-68
2023/06/21 11:25:50;;;;;;;7.05;3.97;;;24.10;70.70;;;;;;5081162;28;20209;-69
2023/06/21 11:28:19;;;;;;;5.88;3.80;;;24.10;70.70;;;;;;5092714;28;20245;-69
2023/06/21 11:31:00;;;;;;;7.20;4.40;;;24.10;70.80;;;;;;5103029;28;20201;-69
2023/06/21 11:33:32;;;;;;;8.43;4.00;;;24.10;70.80;;;;;;5073172;28;20257;-69
2023/06/21 11:36:08;;;;;;;7.32;4.20;;;24.10;71.00;;;;;;5081389;28;20196;-68
2023/06/21 11:38:35;;;;;;;6.78;3.80;;;24.10;70.80;;;;;;5066708;28;20184;-69
2023/06/21 11:41:40;;;;;;;6.20;3.97;;;24.10;71.00;;;;;;5087886;28;20607;-68
2023/06/21 11:44:22;;;;;;;6.05;4.13;;;24.10;71.10;;;;;;5092118;28;20620;-69
2023/06/21 11:46:49;;;;;;;5.50;3.75;;;24.10;70.90;;;;;;5094736;28;20228;-68
2023/06/21 11:49:16;;;;;;;4.75;3.88;;;24.10;70.90;;;;;;5090316;28;20212;-68
2023/06/21 11:52:01;;;;;;;8.27;4.00;;;24.10;70.90;;;;;;5091135;28;20204;-69
2023/06/21 11:54:32;;;;;;;6.93;4.00;;;24.10;71.00;;;;;;5083668;28;20180;-68
2023/06/21 11:56:58;;;;;;;7.03;4.00;;;24.10;71.20;;;;;;5082938;28;20180;-68
2023/06/21 11:59:27;;;;;;;5.35;3.67;;;24.10;71.00;;;;;;5102707;28;20185;-69
2023/06/21 12:01:53;;;;;;;6.85;4.18;;;24.10;71.00;;;;;;5107109;28;20215;-68
2023/06/21 12:04:29;;;;;;;5.93;4.15;;;24.10;71.90;;;;;;5101348;28;20204;-69
2023/06/21 12:06:55;;;;;;;5.72;4.00;;;24.10;71.20;;;;;;5098358;28;20582;-67
2023/06/21 12:09:22;;;;;;;5.80;3.90;;;24.10;71.10;;;;;;5091711;28;20183;-69
2023/06/21 12:11:48;;;;;;;6.65;3.97;;;24.10;71.10;;;;;;5090265;28;20274;-68
2023/06/21 12:14:15;;;;;;;5.18;3.72;;;24.10;71.10;;;;;;5090596;28;20276;-69
2023/06/21 12:16:41;;;;;;;6.03;3.70;;;24.10;71.20;;;;;;5105118;28;20187;-68
2023/06/21 12:19:11;;;;;;;5.93;4.03;;;24.10;71.20;;;;;;5093375;28;20202;-68
2023/06/21 12:21:39;;;;;;;5.85;3.72;;;24.00;71.20;;;;;;5096109;28;20201;-69
2023/06/21 12:24:05;;;;;;;6.75;4.00;;;24.10;71.40;;;;;;5081367;28;20197;-69
2023/06/21 12:26:31;;;;;;;5.60;3.97;;;24.10;71.30;;;;;;5073375;28;20197;-68
2023/06/21 12:28:57;;;;;;;5.18;3.65;;;24.10;71.20;;;;;;5099185;28;20248;-68
2023/06/21 12:31:27;;;;;;;5.32;3.47;;;24.10;71.20;;;;;;5072026;28;20236;-68
2023/06/21 12:34:02;;;;;;;7.43;4.03;;;24.10;71.10;;;;;;5098592;28;20183;-69
2023/06/21 12:36:32;;;;;;;5.30;3.80;;;24.10;71.30;;;;;;5083653;28;20632;-68
2023/06/21 12:39:04;;;;;;;7.05;3.97;;;24.10;71.40;;;;;;5089393;28;20562;-68
2023/06/21 12:41:33;;;;;;;6.57;3.60;;;24.10;71.40;;;;;;5097605;28;20315;-69
2023/06/21 12:44:07;;;;;;;5.88;3.50;;;24.10;71.40;;;;;;5089683;28;20210;-69
2023/06/21 12:46:39;;;;;;;6.60;4.40;;;24.10;71.40;;;;;;5077436;28;20295;-68
2023/06/21 12:49:05;;;;;;;5.18;3.80;;;24.10;71.30;;;;;;5094160;28;20192;-69
2023/06/21 12:51:38;;;;;;;5.00;3.55;;;24.10;71.30;;;;;;5093471;28;20224;-69